TimeCST,TemperatureF,Dew PointF,Humidity,Sea Level PressureIn,VisibilityMPH,Wind Direction,Wind SpeedMPH,Gust SpeedMPH,PrecipitationIn,Events,Conditions,WindDirDegrees,DateUTC
12:53 AM,51.1,35.1,54,30.18,10.0,SE,9.2,-,N/A,,Clear,140,2013-03-08 06:53:00
1:53 AM,50.0,36.0,59,30.19,10.0,SSE,9.2,-,N/A,,Clear,150,2013-03-08 07:53:00
2:53 AM,48.0,37.0,66,30.18,10.0,SSE,5.8,-,N/A,,Clear,160,2013-03-08 08:53:00
3:53 AM,46.0,37.0,71,30.17,10.0,SE,6.9,-,N/A,,Clear,140,2013-03-08 09:53:00
4:53 AM,48.0,37.9,68,30.19,10.0,SSE,5.8,-,N/A,,Clear,150,2013-03-08 10:53:00
5:53 AM,50.0,37.9,63,30.19,10.0,SE,9.2,-,N/A,,Clear,140,2013-03-08 11:53:00
6:53 AM,50.0,37.9,63,30.20,10.0,SE,8.1,-,N/A,,Partly Cloudy,130,2013-03-08 12:53:00
7:53 AM,52.0,41.0,66,30.22,10.0,SE,6.9,-,N/A,,Mostly Cloudy,130,2013-03-08 13:53:00
8:53 AM,55.0,45.0,69,30.24,10.0,SSE,8.1,-,N/A,,Overcast,160,2013-03-08 14:53:00
9:53 AM,57.9,46.9,67,30.25,10.0,SE,10.4,-,N/A,,Overcast,130,2013-03-08 15:53:00
10:53 AM,62.1,48.0,60,30.24,10.0,SE,12.7,-,N/A,,Mostly Cloudy,130,2013-03-08 16:53:00
11:53 AM,64.9,48.9,56,30.22,10.0,SE,12.7,-,N/A,,Scattered Clouds,140,2013-03-08 17:53:00
12:53 PM,68.0,48.9,50,30.17,10.0,SE,10.4,-,N/A,,Clear,130,2013-03-08 18:53:00
1:53 PM,68.0,48.9,50,30.14,10.0,SE,11.5,-,N/A,,Mostly Cloudy,130,2013-03-08 19:53:00
2:53 PM,68.0,48.9,50,30.12,10.0,SE,8.1,-,N/A,,Overcast,140,2013-03-08 20:53:00
3:53 PM,68.0,48.0,49,30.10,10.0,SE,11.5,18.4,N/A,,Overcast,140,2013-03-08 21:53:00
4:53 PM,66.9,50.0,54,30.11,10.0,SSE,8.1,-,0.00,,Overcast,160,2013-03-08 22:53:00
5:53 PM,66.0,51.1,59,30.09,10.0,ESE,6.9,-,0.00,,Overcast,120,2013-03-08 23:53:00
6:53 PM,64.9,46.9,52,30.09,10.0,SE,9.2,-,N/A,,Overcast,140,2013-03-09 00:53:00
7:53 PM,64.0,46.9,54,30.08,10.0,SE,9.2,-,N/A,,Mostly Cloudy,130,2013-03-09 01:53:00
8:53 PM,63.0,48.0,58,30.08,10.0,SE,8.1,-,N/A,,Clear,130,2013-03-09 02:53:00
9:53 PM,59.0,48.0,67,30.09,10.0,SE,3.5,-,N/A,,Clear,140,2013-03-09 03:53:00
10:53 PM,57.9,48.0,70,30.09,10.0,SSE,3.5,-,N/A,,Clear,160,2013-03-09 04:53:00
11:53 PM,57.9,50.0,75,30.06,10.0,SSE,8.1,-,N/A,,Clear,150,2013-03-09 05:53:00